LFPG/CDG METAR and TAF weather

Enter ICAO airport designator
Station Type Date Time Source
LFPG METAR 2019/06/18 14:30 UTC NOAA

LFPG 181430Z 13015KT 090V160 CAVOK 28/14 Q1011 NOSIG


Station Type Date Time Source
LFPG Decoded METAR 2019/06/18 14:30 UTC NOAA

Paris-Aeroport Charles De Gaulle, France (LFPG) 49-01N 002-32E 109M
Jun 18, 2019 - 10:30 AM EDT / 2019.06.18 1430 UTC
Wind: from the SE (130 degrees) at 17 MPH (15 KT) (direction variable):0
Visibility: greater than 7 mile(s):0
Temperature: 82 F (28 C)
Dew Point: 57 F (14 C)
Relative Humidity: 42%
Pressure (altimeter): 29.85 in. Hg (1011 hPa)
ob: LFPG 181430Z 13015KT 090V160 CAVOK 28/14 Q1011 NOSIG
cycle: 14

Station Type Date Time Source
LFPG TAF 2019/06/18 12:57 UTC NOAA

TAF LFPG 181100Z 1812/1918 13010KT CAVOK TX29/1815Z TN19/1904Z PROB40
TEMPO 1821/1906 -SHRA SCT060TCU PROB30 1823/1903 25015G40KT 3000 TSRAGS SCT050CB
BECMG 1906/1908 25010KT PROB40
TEMPO 1912/1918 4000 SHRA BKN040CB PROB30 1915/1918 TSRA

Example: see airport list